Time;durP1;ratioP1;P1;durP2;ratioP2;P2;SDS_P1;SDS_P2;PMS_P1;PMS_P2;Temp;Humidity;BMP_temperature;BMP_pressure;BME280_temperature;BME280_humidity;BME280_pressure;Samples;Min_cycle;Max_cycle;Signal;HPM_P1;HPM_P2
2022/10/07 00:00:48;;;;;;;0.50;0.40;;;10.10;99.90;;;;;;5053151;28;20198;-78
2022/10/07 00:03:15;;;;;;;0.50;0.40;;;10.10;99.90;;;;;;5053071;28;20219;-79
2022/10/07 00:05:42;;;;;;;0.50;0.40;;;10.10;99.90;;;;;;5052699;28;20197;-80
2022/10/07 00:08:10;;;;;;;0.50;0.50;;;10.10;99.90;;;;;;5052939;28;20221;-80
2022/10/07 00:10:39;;;;;;;1.00;0.93;;;10.10;99.90;;;;;;5053060;28;20281;-76
2022/10/07 00:13:06;;;;;;;0.50;0.40;;;10.10;99.90;;;;;;5053404;28;20226;-79
2022/10/07 00:15:33;;;;;;;0.93;0.93;;;10.10;99.90;;;;;;5053201;28;20708;-78
2022/10/07 00:17:59;;;;;;;1.05;1.05;;;10.10;99.90;;;;;;5052377;28;20191;-79
2022/10/07 00:20:27;;;;;;;0.50;0.40;;;10.10;99.90;;;;;;5052621;28;20208;-79
2022/10/07 00:22:53;;;;;;;26.52;1.58;;;10.10;99.90;;;;;;5052586;28;20224;-80
2022/10/07 00:25:22;;;;;;;0.50;0.40;;;10.10;99.90;;;;;;5052808;28;20288;-79
2022/10/07 00:27:50;;;;;;;0.60;0.60;;;10.20;99.90;;;;;;5052146;28;20217;-79
2022/10/07 00:30:17;;;;;;;0.50;0.40;;;10.20;99.90;;;;;;5052612;28;20194;-79
2022/10/07 00:32:43;;;;;;;0.50;0.40;;;10.20;99.90;;;;;;5052720;28;20197;-79
2022/10/07 00:35:10;;;;;;;0.50;0.40;;;10.30;99.90;;;;;;5052147;28;20250;-79
2022/10/07 00:37:41;;;;;;;0.50;0.40;;;10.20;99.90;;;;;;5051775;28;20679;-76
2022/10/07 00:40:10;;;;;;;0.50;0.40;;;10.20;99.90;;;;;;5052146;28;20202;-79
2022/10/07 00:42:39;;;;;;;0.50;0.40;;;10.20;99.90;;;;;;5052116;28;20201;-79
2022/10/07 00:45:07;;;;;;;0.50;0.40;;;10.20;99.90;;;;;;5051370;28;20694;-79
2022/10/07 00:47:35;;;;;;;0.73;0.73;;;10.20;99.90;;;;;;5051578;28;20786;-75
2022/10/07 00:50:05;;;;;;;0.50;0.40;;;10.20;99.90;;;;;;5052044;28;20396;-80
2022/10/07 00:52:35;;;;;;;0.50;0.40;;;10.20;99.90;;;;;;5051947;28;20290;-78
2022/10/07 00:55:05;;;;;;;0.50;0.40;;;10.20;99.90;;;;;;5051587;28;20195;-76
2022/10/07 00:57:32;;;;;;;0.50;0.40;;;10.20;99.90;;;;;;5052053;28;20220;-78
2022/10/07 01:00:02;;;;;;;0.50;0.40;;;10.20;99.90;;;;;;5051244;28;20198;-79
2022/10/07 01:02:29;;;;;;;0.50;0.40;;;10.20;99.90;;;;;;5051874;28;20226;-78
2022/10/07 01:04:59;;;;;;;0.50;0.50;;;10.30;99.90;;;;;;5051509;28;20195;-77
2022/10/07 01:07:26;;;;;;;0.50;0.40;;;10.30;99.90;;;;;;5052004;28;20206;-79
2022/10/07 01:09:56;;;;;;;0.50;0.40;;;10.20;99.90;;;;;;5052965;28;20190;-78
2022/10/07 01:12:31;;;;;;;0.50;0.40;;;10.20;99.90;;;;;;5051865;28;20268;-79
2022/10/07 01:15:08;;;;;;;0.50;0.40;;;10.30;99.90;;;;;;5035406;28;20205;-79
2022/10/07 01:17:42;;;;;;;0.50;0.40;;;10.30;99.90;;;;;;5035831;28;20205;-77
2022/10/07 01:20:18;;;;;;;0.50;0.40;;;10.30;99.90;;;;;;5035037;28;20208;-78
2022/10/07 01:22:56;;;;;;;0.50;0.40;;;10.20;99.90;;;;;;5036051;28;20550;-79
2022/10/07 01:25:35;;;;;;;0.50;0.50;;;10.20;99.90;;;;;;5035312;28;20195;-78
2022/10/07 01:28:07;;;;;;;0.50;0.40;;;10.20;99.90;;;;;;5035651;28;20597;-79
2022/10/07 01:30:40;;;;;;;0.70;0.70;;;10.20;99.90;;;;;;5035169;28;20199;-79
2022/10/07 01:33:12;;;;;;;0.50;0.40;;;10.20;99.90;;;;;;5036347;28;20211;-79
2022/10/07 01:35:41;;;;;;;0.50;0.40;;;10.10;99.90;;;;;;5036515;28;20218;-78
2022/10/07 01:38:11;;;;;;;0.50;0.40;;;10.10;99.90;;;;;;5035653;28;20224;-78
2022/10/07 01:40:44;;;;;;;0.60;0.60;;;10.10;99.90;;;;;;5035361;28;20572;-74
2022/10/07 01:43:15;;;;;;;0.50;0.40;;;10.00;99.90;;;;;;5035210;28;20580;-78
2022/10/07 01:45:43;;;;;;;0.50;0.40;;;10.00;99.90;;;;;;5034978;28;20197;-78
2022/10/07 01:48:10;;;;;;;0.50;0.50;;;10.00;99.90;;;;;;5035118;28;20205;-79
2022/10/07 01:50:39;;;;;;;0.50;0.40;;;10.00;99.90;;;;;;5035921;28;20231;-78
2022/10/07 01:53:27;;;;;;;0.50;0.40;;;10.00;99.90;;;;;;5036743;28;20226;-78
2022/10/07 01:56:09;;;;;;;0.65;0.65;;;10.00;99.90;;;;;;5034523;28;20212;-79
2022/10/07 01:59:12;;;;;;;0.50;0.50;;;10.00;99.90;;;;;;5034792;28;20209;-74
2022/10/07 02:01:46;;;;;;;0.50;0.40;;;9.90;99.90;;;;;;4987894;28;20669;-75
2022/10/07 02:04:30;;;;;;;0.50;0.43;;;10.00;99.90;;;;;;5034997;28;20969;-78
2022/10/07 02:07:03;;;;;;;0.50;0.40;;;9.90;99.90;;;;;;5035151;28;20251;-78
2022/10/07 02:09:34;;;;;;;0.60;0.50;;;10.00;99.90;;;;;;5035249;28;20301;-78
2022/10/07 02:12:12;;;;;;;0.50;0.40;;;10.00;99.90;;;;;;5034820;28;20619;-80
2022/10/07 02:14:45;;;;;;;0.50;0.40;;;10.00;99.90;;;;;;5035476;28;20710;-78
2022/10/07 02:17:16;;;;;;;0.50;0.40;;;10.00;99.90;;;;;;5035548;28;20203;-78
2022/10/07 02:19:47;;;;;;;0.50;0.40;;;9.90;99.90;;;;;;5038184;28;20190;-78
2022/10/07 02:22:17;;;;;;;0.50;0.40;;;10.00;99.90;;;;;;5036162;28;20712;-79
2022/10/07 02:24:46;;;;;;;0.50;0.50;;;10.00;99.90;;;;;;5033731;28;20226;-77
2022/10/07 02:27:18;;;;;;;0.50;0.40;;;9.90;99.90;;;;;;5034254;28;20194;-78
2022/10/07 02:29:48;;;;;;;0.50;0.40;;;9.90;99.90;;;;;;5034522;28;20194;-78
2022/10/07 02:32:19;;;;;;;0.50;0.40;;;9.90;99.90;;;;;;5034876;28;20278;-78
2022/10/07 02:34:51;;;;;;;0.50;0.40;;;9.90;99.90;;;;;;5033967;28;20229;-78
2022/10/07 02:37:23;;;;;;;0.80;0.63;;;9.90;99.90;;;;;;5034628;28;20628;-78
2022/10/07 02:39:51;;;;;;;0.90;0.70;;;9.90;99.90;;;;;;5036388;28;20202;-78
2022/10/07 02:42:24;;;;;;;0.50;0.40;;;9.90;99.90;;;;;;5034199;28;20281;-78
2022/10/07 02:44:55;;;;;;;0.50;0.50;;;10.00;99.90;;;;;;5033932;28;20191;-78
2022/10/07 02:47:28;;;;;;;0.50;0.40;;;10.00;99.90;;;;;;5033900;28;20548;-78
2022/10/07 02:49:59;;;;;;;0.50;0.40;;;10.00;99.90;;;;;;5033909;28;20660;-78
2022/10/07 02:52:30;;;;;;;0.50;0.40;;;9.90;99.90;;;;;;5033821;28;20833;-78
2022/10/07 02:55:02;;;;;;;0.50;0.40;;;9.90;99.90;;;;;;5033959;28;20206;-78
2022/10/07 02:57:33;;;;;;;0.70;0.50;;;10.00;99.90;;;;;;5032302;28;20211;-77
2022/10/07 03:00:02;;;;;;;0.50;0.45;;;9.90;99.90;;;;;;5033219;28;20205;-78
2022/10/07 03:02:36;;;;;;;0.50;0.40;;;9.90;99.90;;;;;;5033871;28;20195;-78
2022/10/07 03:05:03;;;;;;;0.50;0.38;;;9.90;99.90;;;;;;5033714;28;20206;-78
2022/10/07 03:07:30;;;;;;;0.57;0.50;;;9.90;99.90;;;;;;5033145;28;20191;-78
2022/10/07 03:09:56;;;;;;;0.50;0.40;;;9.90;99.90;;;;;;5033398;28;20544;-78
2022/10/07 03:12:23;;;;;;;0.50;0.40;;;9.90;99.90;;;;;;5033356;28;20290;-78
2022/10/07 03:14:50;;;;;;;0.70;0.70;;;9.90;99.90;;;;;;5032420;28;20236;-78
2022/10/07 03:17:18;;;;;;;0.50;0.40;;;9.90;99.90;;;;;;5033146;28;20317;-77
2022/10/07 03:19:45;;;;;;;0.80;0.80;;;9.90;99.90;;;;;;5034027;28;20242;-78
2022/10/07 03:22:12;;;;;;;0.93;0.93;;;10.00;99.90;;;;;;5033900;28;20262;-78
2022/10/07 03:24:39;;;;;;;0.50;0.40;;;10.00;99.90;;;;;;5032981;28;20232;-78
2022/10/07 03:27:07;;;;;;;0.50;0.40;;;10.00;99.90;;;;;;5033686;28;20781;-78
2022/10/07 03:29:35;;;;;;;0.50;0.50;;;10.00;99.90;;;;;;5033299;28;20603;-78
2022/10/07 03:32:02;;;;;;;0.50;0.40;;;10.00;99.90;;;;;;5033336;28;20216;-78
2022/10/07 03:34:31;;;;;;;0.50;0.40;;;9.90;99.90;;;;;;5033110;28;20221;-78
2022/10/07 03:36:58;;;;;;;1.95;1.02;;;9.90;99.90;;;;;;5033014;28;20739;-77
2022/10/07 03:39:25;;;;;;;1.35;1.00;;;9.80;99.90;;;;;;5032617;28;20195;-77
2022/10/07 03:41:52;;;;;;;3.17;2.60;;;9.80;99.90;;;;;;5032899;28;20283;-78
2022/10/07 03:44:21;;;;;;;0.50;0.40;;;9.80;99.90;;;;;;5032761;28;20305;-77
2022/10/07 03:46:49;;;;;;;0.80;0.60;;;9.80;99.90;;;;;;5032499;28;20194;-78
2022/10/07 03:49:16;;;;;;;0.50;0.50;;;9.70;99.90;;;;;;5033428;28;20191;-78
2022/10/07 03:51:44;;;;;;;0.50;0.40;;;9.70;99.90;;;;;;5032245;28;20199;-77
2022/10/07 03:54:11;;;;;;;0.50;0.40;;;9.70;99.90;;;;;;5032592;28;20221;-78
2022/10/07 03:56:38;;;;;;;1.08;0.98;;;9.60;99.90;;;;;;5032999;28;20249;-77
2022/10/07 03:59:05;;;;;;;0.50;0.40;;;9.60;99.90;;;;;;5031897;28;20210;-77
2022/10/07 04:01:31;;;;;;;0.50;0.40;;;9.50;99.90;;;;;;5032247;28;20756;-76
2022/10/07 04:03:59;;;;;;;0.50;0.40;;;9.50;99.90;;;;;;5032273;28;20245;-77
2022/10/07 04:06:26;;;;;;;0.50;0.50;;;9.50;99.90;;;;;;5032088;28;20202;-77
2022/10/07 04:08:55;;;;;;;0.50;0.40;;;9.50;99.90;;;;;;5032205;28;20199;-77
2022/10/07 04:11:23;;;;;;;2.65;2.55;;;9.50;99.90;;;;;;5032790;28;20293;-77
2022/10/07 04:13:50;;;;;;;0.50;0.40;;;9.40;99.90;;;;;;5031782;28;20261;-77
2022/10/07 04:16:17;;;;;;;0.50;0.40;;;9.50;99.90;;;;;;5032129;28;20257;-77
2022/10/07 04:18:44;;;;;;;0.63;0.63;;;9.40;99.90;;;;;;5032348;28;20339;-77
2022/10/07 04:21:12;;;;;;;0.50;0.40;;;9.30;99.90;;;;;;5033605;28;20194;-78
2022/10/07 04:23:40;;;;;;;0.63;0.63;;;9.30;99.90;;;;;;5032918;28;20353;-78
2022/10/07 04:26:10;;;;;;;0.50;0.40;;;9.30;99.90;;;;;;5032447;28;20268;-78
2022/10/07 04:28:37;;;;;;;0.50;0.40;;;9.40;99.90;;;;;;5032008;28;20201;-76
2022/10/07 04:31:05;;;;;;;0.50;0.40;;;9.30;99.90;;;;;;5031522;28;20198;-78
2022/10/07 04:33:32;;;;;;;0.50;0.40;;;9.30;99.90;;;;;;5032229;28;20228;-77
2022/10/07 04:36:04;;;;;;;0.63;0.63;;;9.30;99.90;;;;;;5031567;28;20202;-78
2022/10/07 04:38:31;;;;;;;0.50;0.40;;;9.30;99.90;;;;;;5031705;28;20675;-78
2022/10/07 04:40:59;;;;;;;0.50;0.40;;;9.30;99.90;;;;;;5032304;28;20647;-77
2022/10/07 04:43:32;;;;;;;3.15;2.85;;;9.30;99.90;;;;;;5031635;28;20222;-78
2022/10/07 04:46:02;;;;;;;1.13;0.82;;;9.30;99.90;;;;;;5032138;28;20182;-79
2022/10/07 04:48:29;;;;;;;0.50;0.40;;;9.30;99.90;;;;;;5031942;28;20215;-76
2022/10/07 04:51:00;;;;;;;3.08;1.95;;;9.20;99.90;;;;;;5031741;28;20208;-78
2022/10/07 04:53:27;;;;;;;1.50;1.40;;;9.20;99.90;;;;;;5031572;28;20215;-76
2022/10/07 04:55:55;;;;;;;0.50;0.40;;;9.30;99.90;;;;;;5031242;28;20229;-77
2022/10/07 04:58:22;;;;;;;0.50;0.40;;;9.30;99.90;;;;;;5031493;28;20214;-77
2022/10/07 05:00:52;;;;;;;0.50;0.40;;;9.30;99.90;;;;;;5031612;28;20198;-76
2022/10/07 05:03:21;;;;;;;1.35;1.25;;;9.20;99.90;;;;;;5031582;28;20215;-77
2022/10/07 05:05:50;;;;;;;0.50;0.40;;;9.20;99.90;;;;;;5030985;28;20198;-76
2022/10/07 05:08:19;;;;;;;0.50;0.40;;;9.20;99.90;;;;;;5031243;28;20670;-77
2022/10/07 05:10:46;;;;;;;1.73;1.60;;;9.20;99.90;;;;;;5031640;28;20209;-77
2022/10/07 05:13:16;;;;;;;0.50;0.40;;;9.20;99.90;;;;;;5030943;28;20226;-77
2022/10/07 05:15:52;;;;;;;0.50;0.40;;;9.20;99.90;;;;;;5031799;28;20202;-78
2022/10/07 05:18:19;;;;;;;1.05;0.85;;;9.20;99.90;;;;;;5031256;28;20236;-77
2022/10/07 05:20:47;;;;;;;0.50;0.40;;;9.20;99.90;;;;;;5031353;28;20225;-77
2022/10/07 05:23:14;;;;;;;0.50;0.40;;;9.20;99.90;;;;;;5032223;28;20219;-78
2022/10/07 05:25:42;;;;;;;0.50;0.40;;;9.20;99.90;;;;;;5031577;28;20687;-77
2022/10/07 05:28:10;;;;;;;0.50;0.40;;;9.20;99.90;;;;;;5031194;28;20227;-77
2022/10/07 05:30:37;;;;;;;0.50;0.40;;;9.10;99.90;;;;;;5031149;28;20661;-76
2022/10/07 05:33:06;;;;;;;0.50;0.40;;;9.10;99.90;;;;;;5030841;28;20299;-76
2022/10/07 05:35:32;;;;;;;0.50;0.40;;;9.10;99.90;;;;;;5031106;28;20234;-75
2022/10/07 05:38:00;;;;;;;0.50;0.50;;;9.00;99.90;;;;;;5032239;28;20214;-77
2022/10/07 05:40:27;;;;;;;0.50;0.50;;;9.10;99.90;;;;;;5031949;28;20207;-77
2022/10/07 05:42:55;;;;;;;0.50;0.40;;;9.10;99.90;;;;;;5031576;28;20225;-78
2022/10/07 05:45:21;;;;;;;0.50;0.40;;;9.10;99.90;;;;;;5031138;28;20219;-78
2022/10/07 05:47:48;;;;;;;0.68;0.68;;;9.10;99.90;;;;;;5031102;28;20191;-78
2022/10/07 05:50:17;;;;;;;1.63;0.55;;;9.10;99.90;;;;;;5031288;28;20294;-77
2022/10/07 05:52:44;;;;;;;0.50;0.50;;;9.10;99.90;;;;;;5031324;28;20568;-77
2022/10/07 05:55:11;;;;;;;0.65;0.63;;;9.10;99.90;;;;;;5032436;28;20208;-77
2022/10/07 05:57:38;;;;;;;0.50;0.50;;;9.10;99.90;;;;;;5034991;28;20214;-77
2022/10/07 06:00:06;;;;;;;0.50;0.40;;;9.10;99.90;;;;;;5035147;28;21060;-78
2022/10/07 06:02:34;;;;;;;0.60;0.40;;;9.20;99.90;;;;;;5035336;28;20201;-78
2022/10/07 06:05:01;;;;;;;0.50;0.40;;;9.20;99.90;;;;;;5035140;28;20197;-78
2022/10/07 06:07:29;;;;;;;0.50;0.40;;;9.20;99.90;;;;;;5035087;28;20193;-77
2022/10/07 06:15:29;;;;;;;0.60;0.50;;;9.40;99.90;;;;;;5034464;28;20198;-77
2022/10/07 06:17:56;;;;;;;1.30;1.20;;;9.40;99.90;;;;;;5035115;28;20208;-77
2022/10/07 06:20:23;;;;;;;0.60;0.60;;;9.40;99.90;;;;;;5034147;28;20204;-75
2022/10/07 06:22:52;;;;;;;3.65;3.35;;;9.60;99.90;;;;;;5033942;28;20326;-77
2022/10/07 06:25:19;;;;;;;0.70;0.70;;;9.70;99.90;;;;;;5033790;28;20712;-75
2022/10/07 06:27:46;;;;;;;0.50;0.40;;;9.80;99.90;;;;;;5033928;28;20285;-77
2022/10/07 06:30:13;;;;;;;0.50;0.40;;;9.90;99.90;;;;;;5033171;28;20201;-77
2022/10/07 06:32:40;;;;;;;0.50;0.40;;;10.00;99.90;;;;;;5033886;28;20274;-78
2022/10/07 06:35:08;;;;;;;0.60;0.60;;;10.10;99.90;;;;;;5033139;28;20207;-77
2022/10/07 06:37:35;;;;;;;0.50;0.40;;;10.20;99.90;;;;;;5033656;28;20661;-77
2022/10/07 06:40:03;;;;;;;0.70;0.70;;;10.30;99.90;;;;;;5033553;28;20387;-77
2022/10/07 06:42:31;;;;;;;0.50;0.40;;;10.40;99.90;;;;;;5033645;28;20209;-76
2022/10/07 06:44:58;;;;;;;9.18;2.05;;;10.50;99.90;;;;;;5033409;28;20211;-76
2022/10/07 06:47:24;;;;;;;0.50;0.40;;;10.60;99.90;;;;;;5033618;28;20194;-76
2022/10/07 06:49:51;;;;;;;0.50;0.40;;;10.70;99.90;;;;;;5033344;28;20202;-77
2022/10/07 06:52:18;;;;;;;2.75;1.02;;;10.80;99.90;;;;;;5033711;28;20195;-77
2022/10/07 06:54:45;;;;;;;0.50;0.40;;;10.80;99.90;;;;;;5033328;28;20334;-77
2022/10/07 06:57:13;;;;;;;0.70;0.65;;;10.90;99.90;;;;;;5033014;28;20634;-77
2022/10/07 06:59:40;;;;;;;0.73;0.73;;;11.00;99.90;;;;;;5033560;28;20571;-74
2022/10/07 07:02:07;;;;;;;33.20;2.72;;;11.10;99.90;;;;;;5033424;28;20235;-77
2022/10/07 07:04:34;;;;;;;3.20;0.80;;;11.10;99.90;;;;;;5033106;28;20306;-76
2022/10/07 07:07:01;;;;;;;0.50;0.50;;;11.10;99.90;;;;;;5032548;28;20230;-76
2022/10/07 07:09:27;;;;;;;1.65;1.55;;;11.20;99.90;;;;;;5032873;28;20226;-76
2022/10/07 07:11:54;;;;;;;0.50;0.40;;;11.20;99.90;;;;;;5032889;28;20199;-77
2022/10/07 07:14:24;;;;;;;0.50;0.40;;;11.30;99.90;;;;;;5032526;28;20309;-77
2022/10/07 07:16:52;;;;;;;0.88;0.75;;;11.30;99.90;;;;;;5032802;28;20199;-76
2022/10/07 07:19:19;;;;;;;2.60;1.02;;;11.40;99.90;;;;;;5033149;28;20237;-77
2022/10/07 07:21:45;;;;;;;1.05;0.95;;;11.50;99.90;;;;;;5033121;28;20290;-76
2022/10/07 07:24:14;;;;;;;2.15;0.82;;;11.70;99.90;;;;;;5032295;28;20311;-77
2022/10/07 07:26:41;;;;;;;0.95;0.85;;;11.90;99.90;;;;;;5033163;28;20653;-76
2022/10/07 07:29:08;;;;;;;0.60;0.40;;;12.10;99.90;;;;;;5032678;28;20235;-76
2022/10/07 07:31:36;;;;;;;0.70;0.60;;;12.30;99.90;;;;;;5032053;28;20201;-76
2022/10/07 07:34:06;;;;;;;3.70;1.20;;;12.40;99.90;;;;;;5032512;28;20708;-77
2022/10/07 07:36:35;;;;;;;0.83;0.83;;;12.70;99.90;;;;;;5032605;28;20536;-78
2022/10/07 07:39:05;;;;;;;1.50;1.25;;;12.90;99.90;;;;;;5032977;28;20505;-77
2022/10/07 07:41:34;;;;;;;1.15;0.95;;;13.10;99.90;;;;;;5034218;28;20217;-77
2022/10/07 07:44:03;;;;;;;0.50;0.40;;;13.20;99.90;;;;;;5032401;28;20711;-77
2022/10/07 07:46:33;;;;;;;0.60;0.50;;;13.20;99.90;;;;;;5032465;28;20227;-77
2022/10/07 07:49:01;;;;;;;5.93;1.13;;;13.20;99.90;;;;;;5032828;28;20433;-77
2022/10/07 07:51:28;;;;;;;0.50;0.40;;;13.20;99.90;;;;;;5032038;28;20246;-77
2022/10/07 07:53:55;;;;;;;0.50;0.50;;;13.60;99.90;;;;;;5032026;28;20772;-76
2022/10/07 07:56:22;;;;;;;2.67;1.77;;;14.50;99.90;;;;;;5032670;28;20480;-77
2022/10/07 07:58:49;;;;;;;0.87;0.57;;;15.70;99.90;;;;;;5031765;28;20473;-78
2022/10/07 08:01:18;;;;;;;0.60;0.40;;;17.00;99.90;;;;;;5032329;28;20444;-77
2022/10/07 08:03:47;;;;;;;0.50;0.30;;;18.30;99.90;;;;;;5032807;28;20474;-76
2022/10/07 08:06:18;;;;;;;0.60;0.50;;;19.50;99.90;;;;;;5033002;28;20466;-78
2022/10/07 08:08:45;;;;;;;0.60;0.60;;;20.60;99.80;;;;;;5032440;28;20485;-78
2022/10/07 08:11:13;;;;;;;0.93;0.50;;;20.80;97.00;;;;;;5033094;28;20442;-78
2022/10/07 08:13:41;;;;;;;0.50;0.40;;;21.80;93.00;;;;;;5032227;28;20512;-77
2022/10/07 08:16:08;;;;;;;0.50;0.30;;;22.10;90.00;;;;;;5032094;28;20457;-78
2022/10/07 08:18:37;;;;;;;0.50;0.30;;;22.80;90.00;;;;;;5057868;22;20493;-74
2022/10/07 08:21:06;;;;;;;0.50;0.30;;;23.10;83.30;;;;;;5070920;28;20472;-77
2022/10/07 08:23:35;;;;;;;0.97;0.40;;;23.10;81.40;;;;;;5089518;28;20481;-77
2022/10/07 08:26:03;;;;;;;0.50;0.30;;;23.40;78.30;;;;;;5091518;28;20439;-76
2022/10/07 08:28:30;;;;;;;9.87;0.90;;;23.90;78.30;;;;;;5091855;28;20492;-74
2022/10/07 08:31:03;;;;;;;0.50;0.30;;;24.30;76.10;;;;;;5090917;28;20435;-76
2022/10/07 08:33:33;;;;;;;1.60;1.17;;;23.40;76.10;;;;;;5091816;28;20416;-76
2022/10/07 08:36:01;;;;;;;6.73;1.07;;;23.80;73.80;;;;;;5091184;28;20919;-75
2022/10/07 08:38:30;;;;;;;1.17;0.93;;;23.30;74.70;;;;;;5091614;28;20471;-77
2022/10/07 08:41:14;;;;;;;0.60;0.50;;;23.60;73.30;;;;;;5091217;28;20978;-77
2022/10/07 08:43:44;;;;;;;0.83;0.80;;;23.30;73.50;;;;;;5091468;28;20470;-75
2022/10/07 08:46:15;;;;;;;0.50;0.40;;;22.20;74.40;;;;;;5091009;28;20442;-77
2022/10/07 08:48:45;;;;;;;0.50;0.40;;;21.70;78.70;;;;;;5091365;28;20455;-76
2022/10/07 08:51:19;;;;;;;4.63;1.17;;;22.20;78.00;;;;;;5091132;28;20444;-76
2022/10/07 08:53:49;;;;;;;1.00;0.50;;;22.30;76.60;;;;;;5091280;28;20836;-77
2022/10/07 08:56:19;;;;;;;0.50;0.40;;;22.40;76.30;;;;;;5091041;28;20420;-77
2022/10/07 08:59:00;;;;;;;0.50;0.40;;;22.80;77.70;;;;;;5091259;28;20494;-76
2022/10/07 09:01:38;;;;;;;1.00;0.47;;;23.00;75.40;;;;;;5091120;28;20487;-77
2022/10/07 09:04:16;;;;;;;0.50;0.40;;;23.30;75.10;;;;;;5090593;28;20456;-77
2022/10/07 09:06:47;;;;;;;15.03;0.60;;;22.80;74.50;;;;;;5091284;28;20435;-76
2022/10/07 09:09:19;;;;;;;1.53;1.10;;;22.80;75.00;;;;;;5091054;28;20462;-77
2022/10/07 09:11:49;;;;;;;0.77;0.77;;;22.90;74.90;;;;;;5090939;28;20443;-77
2022/10/07 09:14:26;;;;;;;0.50;0.30;;;23.20;75.90;;;;;;5090395;28;20435;-77
2022/10/07 09:16:56;;;;;;;1.47;1.47;;;23.90;73.20;;;;;;5091050;28;20526;-76
2022/10/07 09:19:30;;;;;;;0.50;0.40;;;23.50;72.00;;;;;;5090766;28;20937;-77
2022/10/07 09:22:04;;;;;;;0.93;0.80;;;23.50;74.00;;;;;;5091001;28;20830;-76
2022/10/07 09:24:31;;;;;;;0.50;0.30;;;23.50;72.70;;;;;;5090820;28;20465;-76
2022/10/07 09:27:03;;;;;;;2.17;1.80;;;23.00;73.50;;;;;;5090962;28;20446;-76
2022/10/07 09:29:31;;;;;;;2.73;1.10;;;22.20;74.80;;;;;;5091017;28;20443;-74
2022/10/07 09:31:58;;;;;;;0.50;0.40;;;22.40;75.10;;;;;;5094034;28;20542;-75
2022/10/07 09:34:27;;;;;;;2.47;0.80;;;22.00;75.60;;;;;;5094676;28;20494;-77
2022/10/07 09:37:17;;;;;;;1.50;1.40;;;21.70;77.40;;;;;;5094471;28;20530;-76
2022/10/07 09:39:45;;;;;;;0.90;0.60;;;21.00;79.60;;;;;;5094474;28;20485;-76
2022/10/07 09:42:28;;;;;;;0.60;0.50;;;20.40;81.30;;;;;;5095068;28;20441;-76
2022/10/07 09:45:00;;;;;;;2.87;1.53;;;19.70;84.70;;;;;;5094205;28;20431;-76
2022/10/07 09:47:30;;;;;;;1.13;1.03;;;19.50;88.30;;;;;;5094707;28;20419;-76
2022/10/07 09:49:58;;;;;;;0.50;0.40;;;19.30;90.80;;;;;;5094558;28;21006;-76
2022/10/07 09:52:27;;;;;;;0.67;0.63;;;19.20;92.80;;;;;;5094402;28;20431;-76
2022/10/07 09:54:56;;;;;;;0.50;0.40;;;19.10;92.70;;;;;;5094512;28;20441;-76
2022/10/07 09:57:28;;;;;;;4.50;1.63;;;18.70;96.80;;;;;;5094505;28;20437;-76
2022/10/07 10:00:17;;;;;;;0.50;0.30;;;18.60;99.30;;;;;;5094837;28;20481;-76
2022/10/07 10:02:48;;;;;;;1.30;0.60;;;18.60;99.90;;;;;;5094353;28;20516;-76
2022/10/07 10:05:25;;;;;;;0.50;0.40;;;18.60;99.90;;;;;;5093687;28;20435;-75
2022/10/07 10:08:00;;;;;;;0.60;0.50;;;19.20;99.90;;;;;;5094635;28;20439;-75
2022/10/07 10:10:29;;;;;;;0.50;0.40;;;19.90;99.60;;;;;;5094791;28;20462;-76
2022/10/07 10:13:00;;;;;;;3.90;1.13;;;20.00;97.40;;;;;;5094608;28;20435;-76
2022/10/07 10:15:38;;;;;;;0.80;0.67;;;20.10;95.80;;;;;;5093983;28;20530;-79
2022/10/07 10:18:30;;;;;;;1.23;0.83;;;20.30;93.70;;;;;;5094789;28;20435;-77
2022/10/07 10:21:13;;;;;;;0.50;0.40;;;20.20;94.40;;;;;;5094573;28;20453;-76
2022/10/07 10:23:42;;;;;;;1.27;0.60;;;20.40;94.10;;;;;;5094370;28;20428;-78
2022/10/07 10:26:25;;;;;;;1.73;1.63;;;20.80;92.40;;;;;;5094158;28;20526;-77
2022/10/07 10:29:02;;;;;;;0.50;0.40;;;21.00;91.50;;;;;;5093882;28;20462;-76
2022/10/07 10:31:39;;;;;;;0.50;0.40;;;21.50;90.40;;;;;;5093707;28;20780;-77
2022/10/07 10:34:18;;;;;;;12.43;3.57;;;21.90;89.50;;;;;;5093750;28;20427;-77
2022/10/07 10:36:53;;;;;;;0.73;0.50;;;21.90;85.80;;;;;;5094259;28;20435;-77
2022/10/07 10:39:29;;;;;;;0.60;0.50;;;21.90;87.00;;;;;;5093345;28;20479;-76
2022/10/07 10:41:59;;;;;;;0.50;0.40;;;21.50;86.30;;;;;;5093180;28;20430;-77
2022/10/07 10:44:48;;;;;;;6.70;4.10;;;21.60;86.00;;;;;;5093512;28;20525;-77
2022/10/07 10:47:27;;;;;;;1.70;1.60;;;21.80;84.60;;;;;;5093129;28;20448;-76
2022/10/07 10:50:08;;;;;;;0.70;0.50;;;22.50;83.40;;;;;;5093796;28;20542;-79
2022/10/07 10:52:50;;;;;;;4.83;1.10;;;22.20;82.10;;;;;;5093560;28;20445;-76
2022/10/07 10:55:35;;;;;;;0.57;0.50;;;22.30;81.40;;;;;;5092742;28;20980;-76
2022/10/07 10:58:14;;;;;;;0.50;0.30;;;22.00;80.90;;;;;;5093481;28;20465;-75
2022/10/07 11:00:55;;;;;;;0.50;0.30;;;22.50;82.40;;;;;;5093735;28;20462;-77
2022/10/07 11:03:33;;;;;;;0.50;0.30;;;23.00;81.70;;;;;;5093439;28;20424;-77
2022/10/07 11:06:05;;;;;;;1.53;1.07;;;23.40;80.30;;;;;;5093004;28;20844;-77
2022/10/07 11:08:35;;;;;;;0.50;0.30;;;23.70;78.50;;;;;;5093381;28;20431;-75
2022/10/07 11:11:07;;;;;;;7.90;2.93;;;23.80;77.10;;;;;;5093042;28;20530;-77
2022/10/07 11:13:39;;;;;;;0.60;0.47;;;24.00;77.00;;;;;;5093510;28;20426;-76
2022/10/07 11:16:11;;;;;;;0.50;0.30;;;22.90;76.20;;;;;;5092377;28;20408;-76
2022/10/07 11:18:44;;;;;;;1.27;1.03;;;22.20;79.70;;;;;;5092983;28;20479;-77
2022/10/07 11:21:18;;;;;;;3.07;2.87;;;22.10;80.50;;;;;;5093306;28;20846;-77
2022/10/07 11:23:52;;;;;;;1.40;0.73;;;22.10;81.80;;;;;;5093007;28;20442;-75
2022/10/07 11:26:25;;;;;;;0.50;0.40;;;22.30;82.20;;;;;;5092451;28;20445;-77
2022/10/07 11:28:53;;;;;;;0.50;0.30;;;22.50;81.40;;;;;;5092760;28;20821;-77
2022/10/07 11:31:31;;;;;;;0.60;0.50;;;22.90;80.40;;;;;;5092534;28;20439;-76
2022/10/07 11:34:13;;;;;;;3.53;0.80;;;23.80;80.30;;;;;;5092139;28;20976;-76
2022/10/07 11:36:47;;;;;;;1.47;0.50;;;23.10;77.30;;;;;;5093116;28;20423;-76
2022/10/07 11:39:14;;;;;;;0.50;0.40;;;23.00;78.60;;;;;;5092281;28;20475;-76
2022/10/07 11:41:49;;;;;;;1.67;1.00;;;23.30;78.00;;;;;;5092306;28;20975;-77
2022/10/07 11:44:21;;;;;;;0.50;0.30;;;23.20;78.60;;;;;;5092289;28;20425;-75
2022/10/07 11:46:51;;;;;;;0.60;0.50;;;23.40;78.10;;;;;;5092379;28;20443;-77
2022/10/07 11:49:23;;;;;;;1.10;0.60;;;23.80;78.20;;;;;;5092435;28;20827;-77
2022/10/07 11:51:56;;;;;;;0.80;0.77;;;23.30;76.90;;;;;;5091978;28;20436;-76
2022/10/07 11:54:26;;;;;;;0.60;0.40;;;23.10;76.40;;;;;;5091589;28;20928;-77
2022/10/07 11:56:56;;;;;;;0.50;0.30;;;23.40;76.60;;;;;;5092657;28;20449;-76
2022/10/07 11:59:36;;;;;;;1.93;0.47;;;23.10;77.80;;;;;;5092269;28;20560;-75
2022/10/07 12:02:05;;;;;;;1.73;0.63;;;23.40;76.90;;;;;;5092498;28;20502;-77
2022/10/07 12:04:38;;;;;;;1.03;0.40;;;22.90;76.40;;;;;;5091598;28;20537;-76
2022/10/07 12:07:38;;;;;;;0.50;0.40;;;22.50;77.70;;;;;;5092178;28;20445;-77
2022/10/07 12:10:22;;;;;;;2.10;1.53;;;22.40;78.20;;;;;;5092143;28;20451;-77
2022/10/07 12:12:55;;;;;;;2.60;1.23;;;22.30;78.70;;;;;;5091749;28;20482;-77
2022/10/07 12:15:32;;;;;;;2.10;1.37;;;22.70;80.30;;;;;;5091576;28;20928;-77
2022/10/07 12:18:25;;;;;;;2.60;1.13;;;23.10;77.50;;;;;;5092061;28;20511;-76
2022/10/07 12:21:01;;;;;;;1.70;0.50;;;23.00;75.40;;;;;;5091446;28;20984;-76
2022/10/07 12:24:01;;;;;;;0.60;0.60;;;23.20;76.00;;;;;;5092333;28;20463;-78
2022/10/07 12:26:49;;;;;;;7.20;2.03;;;23.10;76.00;;;;;;5092302;28;20431;-77
2022/10/07 12:29:25;;;;;;;4.77;1.47;;;22.60;76.40;;;;;;5091760;28;20451;-76
2022/10/07 12:31:52;;;;;;;8.27;1.03;;;22.10;76.20;;;;;;5092274;28;20431;-76
2022/10/07 12:34:33;;;;;;;0.50;0.30;;;22.80;78.80;;;;;;5091113;28;20439;-76
2022/10/07 12:37:51;;;;;;;0.50;0.40;;;23.30;77.10;;;;;;5092002;28;20561;-77
2022/10/07 12:40:22;;;;;;;0.50;0.30;;;24.00;73.90;;;;;;5004262;28;21025;-77
2022/10/07 12:42:55;;;;;;;0.50;0.30;;;23.30;74.80;;;;;;5085586;28;20536;-74
2022/10/07 12:45:26;;;;;;;0.50;0.40;;;22.80;73.20;;;;;;5091498;28;20438;-76
2022/10/07 12:47:55;;;;;;;0.50;0.30;;;22.70;72.30;;;;;;5091872;28;20636;-77
2022/10/07 12:50:26;;;;;;;1.53;1.23;;;22.70;74.80;;;;;;5091013;28;20459;-76
2022/10/07 12:52:57;;;;;;;0.57;0.43;;;22.40;74.50;;;;;;5091570;28;20443;-76
2022/10/07 12:55:29;;;;;;;0.50;0.30;;;22.30;75.20;;;;;;5091174;28;20420;-77
2022/10/07 12:59:46;;;;;;;1.10;0.67;;;22.70;75.20;;;;;;5091678;28;20510;-76
2022/10/07 13:00:59;;;;;;;0.60;0.50;;;22.30;74.80;;;;;;5091194;28;20863;-77
2022/10/07 13:04:05;;;;;;;0.60;0.40;;;22.70;76.00;;;;;;5091452;28;20439;-77
2022/10/07 13:06:58;;;;;;;0.80;0.60;;;22.80;73.90;;;;;;5090280;28;20434;-76
2022/10/07 13:09:50;;;;;;;0.50;0.30;;;22.80;72.40;;;;;;5091141;28;20459;-76
2022/10/07 13:12:38;;;;;;;3.40;0.80;;;22.90;73.60;;;;;;5091182;28;20901;-75
2022/10/07 13:15:15;;;;;;;0.50;0.40;;;23.00;72.50;;;;;;5091481;28;20435;-76
2022/10/07 13:17:49;;;;;;;0.60;0.40;;;22.50;72.50;;;;;;5091005;28;20435;-76